Time;durP1;ratioP1;P1;durP2;ratioP2;P2;SDS_P1;SDS_P2;PMS_P1;PMS_P2;Temp;Humidity;BMP_temperature;BMP_pressure;BME280_temperature;BME280_humidity;BME280_pressure;Samples;Min_cycle;Max_cycle;Signal;HPM_P1;HPM_P2
2023/10/10 00:00:49;;;;;;;8.97;6.70;;;12.40;99.90;;;;;;5056598;28;20416;-55
2023/10/10 00:03:17;;;;;;;12.10;7.57;;;12.40;99.90;;;;;;5046553;28;20482;-60
2023/10/10 00:05:45;;;;;;;10.47;7.73;;;12.30;99.90;;;;;;5037693;28;20444;-60
2023/10/10 00:08:15;;;;;;;11.13;7.70;;;12.30;99.90;;;;;;5037594;28;20472;-61
2023/10/10 00:10:49;;;;;;;9.03;6.50;;;12.30;99.90;;;;;;5039061;28;20464;-60
2023/10/10 00:13:19;;;;;;;9.23;8.27;;;12.30;99.90;;;;;;5049136;28;20467;-60
2023/10/10 00:16:05;;;;;;;10.90;7.50;;;12.30;99.90;;;;;;5056197;28;20428;-59
2023/10/10 00:18:32;;;;;;;9.77;6.80;;;12.30;99.90;;;;;;5058385;28;20467;-60
2023/10/10 00:23:47;;;;;;;9.43;6.73;;;12.40;99.90;;;;;;5059014;28;20468;-56
2023/10/10 00:26:15;;;;;;;7.67;6.50;;;12.40;99.90;;;;;;5057892;28;20451;-61
2023/10/10 00:28:45;;;;;;;9.93;7.07;;;12.40;99.90;;;;;;5038576;28;20440;-60
2023/10/10 00:31:17;;;;;;;10.57;6.90;;;12.40;99.90;;;;;;5037874;28;20869;-58
2023/10/10 00:33:45;;;;;;;9.00;7.03;;;12.40;99.90;;;;;;5039828;28;20468;-60
2023/10/10 00:36:20;;;;;;;11.27;7.13;;;12.30;99.90;;;;;;5052813;28;20444;-60
2023/10/10 00:38:58;;;;;;;10.20;6.97;;;12.30;99.90;;;;;;5056163;28;20424;-59
2023/10/10 00:41:27;;;;;;;10.60;6.57;;;12.30;99.90;;;;;;5055844;28;20444;-59
2023/10/10 00:43:54;;;;;;;9.33;5.90;;;12.30;99.90;;;;;;5055629;28;20448;-60
2023/10/10 00:46:28;;;;;;;10.90;6.93;;;12.30;99.90;;;;;;5055110;28;20472;-60
2023/10/10 00:48:59;;;;;;;9.50;5.70;;;12.30;99.90;;;;;;5043891;28;20520;-60
2023/10/10 00:51:30;;;;;;;10.00;6.50;;;12.30;99.90;;;;;;5037991;28;20531;-59
2023/10/10 00:54:11;;;;;;;11.40;6.97;;;12.30;99.90;;;;;;5050992;28;20480;-58
2023/10/10 00:56:39;;;;;;;10.53;6.03;;;12.30;99.90;;;;;;5051548;28;20461;-61
2023/10/10 00:59:06;;;;;;;8.47;6.20;;;12.40;99.90;;;;;;5037019;28;20432;-61
2023/10/10 01:01:34;;;;;;;8.77;5.37;;;12.40;99.90;;;;;;5044924;28;20531;-59
2023/10/10 01:04:05;;;;;;;9.93;6.63;;;12.40;99.90;;;;;;5040662;28;20443;-59
2023/10/10 01:06:32;;;;;;;7.47;6.60;;;12.40;99.90;;;;;;5044546;28;20451;-59
2023/10/10 01:09:15;;;;;;;14.10;5.97;;;12.40;99.90;;;;;;5058082;28;20436;-59
2023/10/10 01:11:43;;;;;;;5.53;4.87;;;12.30;99.90;;;;;;5057921;28;20401;-57
2023/10/10 01:14:16;;;;;;;7.10;5.23;;;12.30;99.90;;;;;;5044366;28;20452;-62
2023/10/10 01:16:47;;;;;;;7.77;5.40;;;12.30;99.90;;;;;;5036666;28;20437;-58
2023/10/10 01:19:22;;;;;;;6.63;4.50;;;12.30;99.90;;;;;;5040591;28;20885;-58
2023/10/10 01:21:57;;;;;;;7.80;5.63;;;12.30;99.90;;;;;;5054668;28;20471;-60
2023/10/10 01:24:24;;;;;;;7.97;5.33;;;12.30;99.90;;;;;;5041900;28;20412;-59
2023/10/10 01:26:52;;;;;;;7.87;5.13;;;12.30;99.90;;;;;;5056633;28;20448;-60
2023/10/10 01:29:25;;;;;;;6.50;5.60;;;12.30;99.90;;;;;;5057833;28;20543;-57
2023/10/10 01:31:52;;;;;;;7.80;4.97;;;12.30;99.90;;;;;;5057206;28;20452;-59
2023/10/10 01:34:39;;;;;;;7.40;5.27;;;12.20;99.90;;;;;;5041905;28;20524;-61
2023/10/10 01:37:14;;;;;;;7.20;4.90;;;12.30;99.90;;;;;;5045847;28;20508;-60
2023/10/10 01:39:55;;;;;;;6.10;4.30;;;12.30;99.90;;;;;;5054844;28;20428;-60
2023/10/10 01:42:31;;;;;;;5.17;3.97;;;12.30;99.90;;;;;;5056507;28;20452;-58
2023/10/10 01:45:04;;;;;;;7.50;5.07;;;12.30;99.90;;;;;;5057897;28;20424;-59
2023/10/10 01:47:39;;;;;;;7.43;3.80;;;12.30;99.90;;;;;;5057528;28;20424;-59
2023/10/10 01:50:08;;;;;;;6.37;5.47;;;12.40;99.90;;;;;;5039552;28;20429;-60
2023/10/10 01:52:38;;;;;;;7.43;4.70;;;12.40;99.90;;;;;;5039141;28;20575;-55
2023/10/10 01:55:06;;;;;;;5.80;5.17;;;12.40;99.90;;;;;;5035494;28;20508;-60
2023/10/10 01:57:33;;;;;;;6.10;4.83;;;12.40;99.90;;;;;;5036649;28;20451;-60
2023/10/10 02:00:11;;;;;;;5.00;3.80;;;12.40;99.90;;;;;;5035486;28;20440;-61
2023/10/10 02:02:41;;;;;;;9.10;4.77;;;12.40;99.90;;;;;;5051805;28;20448;-59
2023/10/10 02:05:11;;;;;;;7.83;5.20;;;12.40;99.90;;;;;;5054077;28;20457;-61
2023/10/10 02:07:40;;;;;;;7.57;5.20;;;12.40;99.90;;;;;;5054439;28;20448;-59
2023/10/10 02:10:13;;;;;;;9.23;5.87;;;12.40;99.90;;;;;;5054365;28;20444;-61
2023/10/10 02:12:44;;;;;;;5.47;4.80;;;12.40;99.90;;;;;;5054395;28;20499;-60
2023/10/10 02:15:13;;;;;;;9.00;5.27;;;12.40;99.90;;;;;;5053834;28;20518;-60
2023/10/10 02:17:42;;;;;;;6.37;5.03;;;12.40;99.90;;;;;;5045952;28;20477;-61
2023/10/10 02:20:32;;;;;;;7.30;5.00;;;12.40;99.90;;;;;;5035364;28;20488;-59
2023/10/10 02:23:22;;;;;;;9.10;4.90;;;12.40;99.90;;;;;;5045425;28;20542;-60
2023/10/10 02:25:49;;;;;;;5.93;4.43;;;12.40;99.90;;;;;;5037634;28;20428;-61
2023/10/10 02:28:20;;;;;;;9.87;5.80;;;12.40;99.90;;;;;;5037314;28;20472;-60
2023/10/10 02:30:52;;;;;;;6.43;4.67;;;12.50;99.90;;;;;;5046409;28;20463;-60
2023/10/10 02:33:30;;;;;;;6.00;4.27;;;12.40;99.90;;;;;;5056455;28;20485;-60
2023/10/10 02:35:57;;;;;;;7.07;4.87;;;12.40;99.90;;;;;;5045027;28;20486;-61
2023/10/10 02:38:31;;;;;;;6.23;4.93;;;12.40;99.90;;;;;;5044319;28;20767;-61
2023/10/10 02:41:14;;;;;;;6.20;4.33;;;12.40;99.90;;;;;;5053386;28;20424;-59
2023/10/10 02:43:54;;;;;;;8.47;5.80;;;12.40;99.90;;;;;;5057165;28;20416;-55
2023/10/10 02:46:33;;;;;;;8.67;5.73;;;12.50;99.90;;;;;;5036202;28;20519;-63
2023/10/10 02:49:09;;;;;;;8.23;5.20;;;12.40;99.90;;;;;;5034659;28;20928;-59
2023/10/10 02:51:40;;;;;;;7.73;5.13;;;12.50;99.90;;;;;;5036223;28;20475;-60
2023/10/10 02:56:56;;;;;;;6.50;5.50;;;12.50;99.90;;;;;;5050436;28;20460;-58
2023/10/10 02:59:31;;;;;;;10.40;5.30;;;12.40;99.90;;;;;;5053180;28;20420;-60
2023/10/10 03:01:59;;;;;;;7.93;5.40;;;12.40;99.90;;;;;;5053646;28;20502;-59
2023/10/10 03:07:15;;;;;;;7.10;5.37;;;12.40;99.90;;;;;;5052095;28;20434;-59
2023/10/10 03:10:14;;;;;;;7.10;5.70;;;12.40;99.90;;;;;;5052493;28;20480;-60
2023/10/10 03:12:38;;;;;;;6.90;5.13;;;13.00;99.90;;;;;;5036320;28;20476;-59
2023/10/10 03:15:14;;;;;;;10.20;5.23;;;12.50;99.90;;;;;;5040500;28;20440;-61
2023/10/10 03:17:48;;;;;;;8.07;6.00;;;12.50;99.90;;;;;;5039438;28;20489;-60
2023/10/10 03:20:25;;;;;;;8.70;6.03;;;12.50;99.90;;;;;;5034730;28;20996;-58
2023/10/10 03:23:23;;;;;;;13.93;7.63;;;12.60;99.90;;;;;;5046854;28;20455;-54
2023/10/10 03:25:52;;;;;;;8.20;6.20;;;12.60;99.90;;;;;;5056143;28;20472;-57
2023/10/10 03:28:19;;;;;;;9.83;7.47;;;12.60;99.90;;;;;;5046639;28;20887;-61
2023/10/10 03:30:52;;;;;;;13.67;7.60;;;12.60;99.90;;;;;;5038623;28;20451;-59
2023/10/10 03:33:36;;;;;;;10.47;7.23;;;12.60;99.90;;;;;;5036201;28;20468;-59
2023/10/10 03:36:13;;;;;;;9.83;6.27;;;12.50;99.90;;;;;;5051811;28;20498;-61
2023/10/10 03:39:15;;;;;;;11.40;7.90;;;12.60;99.90;;;;;;5039547;28;20478;-60
2023/10/10 05:23:34;;;;;;;11.33;7.03;;;13.60;99.90;;;;;;5052196;28;20586;-59
2023/10/10 05:26:02;;;;;;;15.10;8.60;;;13.70;99.90;;;;;;5053413;28;20428;-60
2023/10/10 05:28:32;;;;;;;10.93;7.57;;;13.70;99.90;;;;;;5057688;28;20452;-59
2023/10/10 05:30:59;;;;;;;10.27;6.33;;;13.70;99.90;;;;;;5057146;28;20471;-59
2023/10/10 05:33:27;;;;;;;11.33;6.73;;;13.70;99.90;;;;;;5041864;28;20532;-61
2023/10/10 05:35:59;;;;;;;9.30;5.97;;;13.80;99.90;;;;;;5054692;28;20504;-59
2023/10/10 05:38:27;;;;;;;18.20;8.57;;;13.80;99.90;;;;;;5050261;28;20425;-61
2023/10/10 05:40:54;;;;;;;12.23;6.90;;;13.80;99.90;;;;;;5036274;28;20471;-59
2023/10/10 05:43:26;;;;;;;10.57;7.30;;;13.80;99.90;;;;;;5044313;28;20436;-60
2023/10/10 05:45:54;;;;;;;10.87;7.50;;;13.80;99.90;;;;;;5041011;28;20523;-59
2023/10/10 05:48:26;;;;;;;13.00;8.37;;;13.90;99.90;;;;;;5050912;28;20471;-60
2023/10/10 05:50:53;;;;;;;16.63;8.50;;;13.90;99.90;;;;;;5047286;28;20424;-59
2023/10/10 05:53:21;;;;;;;11.10;8.00;;;13.90;99.90;;;;;;5037513;28;20504;-60
2023/10/10 05:55:53;;;;;;;13.50;8.30;;;14.00;99.90;;;;;;5052369;28;20471;-60
2023/10/10 05:58:21;;;;;;;13.60;8.27;;;14.00;99.90;;;;;;5052856;28;20432;-60
2023/10/10 06:00:49;;;;;;;12.43;7.80;;;14.00;99.90;;;;;;5052611;28;20455;-61
2023/10/10 06:03:17;;;;;;;9.23;7.20;;;14.00;99.90;;;;;;5053192;28;20466;-59
2023/10/10 06:05:46;;;;;;;11.17;5.97;;;14.10;99.90;;;;;;5053036;28;20438;-60
2023/10/10 06:08:13;;;;;;;8.57;5.87;;;14.10;99.90;;;;;;5052811;28;20491;-60
2023/10/10 06:10:45;;;;;;;8.10;5.83;;;14.20;99.90;;;;;;5051442;28;20515;-51
2023/10/10 06:13:12;;;;;;;10.57;7.50;;;14.20;99.90;;;;;;5057094;28;20480;-58
2023/10/10 06:15:39;;;;;;;10.87;6.63;;;14.20;99.90;;;;;;5056914;28;20536;-60
2023/10/10 06:18:15;;;;;;;10.70;6.27;;;14.30;99.90;;;;;;5037446;28;20880;-60
2023/10/10 06:20:43;;;;;;;8.70;6.30;;;14.30;99.90;;;;;;5056465;28;20468;-59
2023/10/10 06:23:14;;;;;;;7.13;5.50;;;14.30;99.90;;;;;;5045111;28;20531;-62
2023/10/10 06:25:43;;;;;;;13.60;5.83;;;14.30;99.90;;;;;;5058585;28;20437;-59
2023/10/10 06:28:22;;;;;;;10.37;5.20;;;14.40;99.90;;;;;;5048298;28;20475;-60
2023/10/10 06:30:52;;;;;;;8.80;5.33;;;14.40;99.90;;;;;;5051371;28;20443;-50
2023/10/10 06:33:27;;;;;;;10.60;6.20;;;14.40;99.90;;;;;;5042864;28;20525;-62
2023/10/10 06:36:18;;;;;;;11.83;5.80;;;14.40;99.90;;;;;;5035912;28;20427;-61
2023/10/10 06:38:45;;;;;;;7.77;5.13;;;14.50;99.90;;;;;;5037840;28;20443;-61
2023/10/10 06:41:22;;;;;;;5.00;4.30;;;14.50;99.90;;;;;;5055208;28;20493;-64
2023/10/10 06:43:51;;;;;;;9.30;4.93;;;14.50;99.90;;;;;;5035603;28;20448;-64
2023/10/10 06:46:18;;;;;;;8.07;4.23;;;14.60;99.90;;;;;;5043161;28;20448;-64
2023/10/10 06:48:47;;;;;;;8.73;5.00;;;14.60;99.90;;;;;;5035116;28;20513;-61
2023/10/10 06:51:15;;;;;;;6.13;4.00;;;14.60;99.90;;;;;;5035509;28;20487;-57
2023/10/10 06:53:46;;;;;;;4.90;3.70;;;14.70;99.90;;;;;;5043865;28;20570;-64
2023/10/10 06:56:17;;;;;;;14.80;4.97;;;14.70;99.90;;;;;;5035698;28;20520;-58
2023/10/10 06:58:45;;;;;;;6.63;4.27;;;14.70;99.90;;;;;;5038035;28;20439;-61
2023/10/10 07:01:12;;;;;;;7.40;5.70;;;14.60;99.90;;;;;;5042382;28;20480;-63
2023/10/10 07:03:42;;;;;;;6.33;4.33;;;14.70;99.90;;;;;;5037354;28;20943;-62
2023/10/10 07:06:12;;;;;;;7.77;5.03;;;14.70;99.90;;;;;;5046943;28;20445;-58
2023/10/10 07:08:39;;;;;;;5.47;4.63;;;14.70;99.90;;;;;;5057062;28;20436;-51
2023/10/10 07:11:08;;;;;;;5.50;4.27;;;14.80;99.90;;;;;;5055968;28;20475;-59
2023/10/10 07:13:43;;;;;;;6.93;3.87;;;14.80;99.90;;;;;;5041184;28;20452;-55
2023/10/10 07:16:10;;;;;;;10.70;4.47;;;14.80;99.90;;;;;;5056946;28;20467;-61
2023/10/10 07:18:40;;;;;;;9.20;4.13;;;14.80;99.90;;;;;;5037853;28;20444;-59
2023/10/10 07:21:17;;;;;;;6.50;4.20;;;14.80;99.90;;;;;;5054535;28;20428;-60
2023/10/10 07:24:02;;;;;;;7.10;4.53;;;15.20;99.90;;;;;;5036568;28;20462;-56
2023/10/10 07:26:31;;;;;;;6.87;4.23;;;14.80;99.90;;;;;;5045428;28;20805;-61
2023/10/10 07:29:25;;;;;;;7.90;4.70;;;14.80;99.90;;;;;;5034089;28;20567;-60
2023/10/10 07:31:46;;;;;;;11.43;5.07;;;14.90;99.90;;;;;;5050233;28;20452;-61
2023/10/10 07:34:16;;;;;;;8.77;5.33;;;15.10;99.90;;;;;;5042211;28;20503;-54
2023/10/10 07:36:43;;;;;;;8.37;6.70;;;14.90;99.90;;;;;;5051144;28;20425;-60
2023/10/10 07:39:35;;;;;;;5.50;4.30;;;14.90;99.90;;;;;;5035430;28;20444;-60
2023/10/10 07:42:03;;;;;;;5.57;4.30;;;15.00;99.90;;;;;;5049699;28;20432;-61
2023/10/10 07:44:41;;;;;;;6.43;4.77;;;15.00;99.90;;;;;;5042979;28;20436;-58
2023/10/10 07:47:20;;;;;;;5.07;4.30;;;15.00;99.90;;;;;;5050731;28;20464;-57
2023/10/10 07:49:52;;;;;;;5.57;4.07;;;15.00;99.90;;;;;;5038256;28;20461;-60
2023/10/10 07:52:21;;;;;;;6.43;5.83;;;15.00;99.90;;;;;;5039591;28;20450;-61
2023/10/10 07:54:53;;;;;;;6.40;4.83;;;15.00;99.90;;;;;;5043656;28;20456;-58
2023/10/10 07:57:25;;;;;;;11.23;5.60;;;15.00;99.90;;;;;;5056602;28;20422;-48
2023/10/10 07:59:58;;;;;;;7.93;4.40;;;15.00;99.90;;;;;;5056771;28;20466;-46
2023/10/10 08:02:31;;;;;;;6.30;4.93;;;15.00;99.90;;;;;;5053100;28;20412;-44
2023/10/10 08:05:01;;;;;;;7.40;5.77;;;15.00;99.90;;;;;;5059206;28;20491;-50
2023/10/10 08:07:28;;;;;;;8.43;5.40;;;15.10;99.90;;;;;;5037979;28;20449;-49
2023/10/10 08:12:36;;;;;;;6.37;4.80;;;15.20;99.90;;;;;;5041372;28;20440;-49
2023/10/10 08:15:19;;;;;;;8.10;5.00;;;15.20;99.90;;;;;;5041646;28;20542;-49
2023/10/10 08:17:52;;;;;;;5.27;4.50;;;15.30;99.90;;;;;;5048763;28;20452;-53
2023/10/10 08:20:34;;;;;;;5.97;4.67;;;15.30;99.90;;;;;;5042785;28;20883;-51
2023/10/10 08:23:02;;;;;;;9.30;5.53;;;15.30;99.90;;;;;;5038236;28;20446;-49
2023/10/10 08:25:29;;;;;;;8.27;5.17;;;15.30;99.90;;;;;;5061163;28;20405;-44
2023/10/10 08:27:58;;;;;;;5.50;4.83;;;15.50;99.90;;;;;;5050865;28;20451;-49
2023/10/10 08:30:28;;;;;;;12.40;4.97;;;15.60;99.90;;;;;;5049467;28;20475;-48
2023/10/10 08:32:56;;;;;;;7.27;4.43;;;15.60;99.90;;;;;;5050168;28;20514;-52
2023/10/10 08:35:23;;;;;;;6.77;4.50;;;15.60;99.90;;;;;;5050939;28;20491;-49
2023/10/10 08:37:51;;;;;;;6.10;4.37;;;15.60;99.90;;;;;;5053293;28;20459;-50
2023/10/10 08:40:20;;;;;;;4.93;4.20;;;15.70;99.90;;;;;;5044571;28;20880;-51
2023/10/10 08:42:49;;;;;;;4.43;3.33;;;15.80;99.90;;;;;;5042188;28;20444;-52
2023/10/10 08:45:23;;;;;;;6.67;4.50;;;15.80;99.90;;;;;;5059208;28;20424;-47
2023/10/10 08:47:58;;;;;;;9.23;3.83;;;15.90;99.90;;;;;;5040748;28;20451;-50
2023/10/10 08:50:25;;;;;;;5.10;3.93;;;16.00;99.90;;;;;;5041069;28;20427;-47
2023/10/10 08:52:52;;;;;;;8.10;3.97;;;16.00;99.90;;;;;;5057966;28;20428;-53
2023/10/10 08:55:26;;;;;;;5.10;3.43;;;15.90;99.90;;;;;;5038504;28;20589;-51
2023/10/10 08:57:55;;;;;;;4.83;3.87;;;15.80;99.90;;;;;;5048250;28;20428;-51
2023/10/10 09:00:26;;;;;;;10.47;4.00;;;15.80;99.90;;;;;;5042860;28;20494;-53
2023/10/10 09:02:55;;;;;;;6.10;3.77;;;15.90;99.90;;;;;;5053427;28;20420;-53
2023/10/10 09:05:23;;;;;;;3.80;3.30;;;15.80;99.90;;;;;;5059570;28;20447;-51
2023/10/10 09:07:52;;;;;;;3.50;3.07;;;15.90;99.90;;;;;;5057003;28;20460;-47
2023/10/10 09:10:28;;;;;;;7.03;2.97;;;15.90;99.90;;;;;;5058741;28;20424;-54
2023/10/10 09:12:58;;;;;;;4.30;3.60;;;15.90;99.90;;;;;;5042842;28;20549;-46
2023/10/10 09:15:25;;;;;;;5.50;3.57;;;16.10;99.90;;;;;;5043493;28;20683;-52
2023/10/10 09:18:12;;;;;;;5.40;3.43;;;16.30;99.90;;;;;;5054933;28;20451;-46
2023/10/10 09:20:39;;;;;;;3.27;2.57;;;16.50;99.90;;;;;;5037683;28;20468;-53
2023/10/10 09:23:22;;;;;;;3.63;3.00;;;16.50;99.90;;;;;;5054998;28;20496;-53
2023/10/10 09:25:57;;;;;;;4.10;2.80;;;16.50;99.90;;;;;;5049760;28;20551;-51
2023/10/10 09:28:30;;;;;;;2.90;2.53;;;16.50;99.90;;;;;;5051249;28;20435;-46
2023/10/10 09:31:00;;;;;;;3.53;2.80;;;16.50;99.90;;;;;;5041956;28;20467;-49
2023/10/10 09:33:30;;;;;;;2.60;2.40;;;16.60;99.90;;;;;;5050648;28;20448;-49
2023/10/10 09:36:08;;;;;;;3.37;2.67;;;16.70;99.90;;;;;;5053793;28;20478;-53
2023/10/10 09:38:35;;;;;;;4.50;3.13;;;16.70;99.90;;;;;;5036618;28;20823;-47
2023/10/10 09:41:14;;;;;;;3.40;2.77;;;16.80;99.90;;;;;;5047591;28;20428;-43
2023/10/10 09:44:00;;;;;;;4.80;3.43;;;16.80;99.90;;;;;;5054087;28;20464;-49
2023/10/10 09:46:52;;;;;;;5.47;3.03;;;16.80;99.90;;;;;;5051481;28;20411;-46
2023/10/10 09:49:35;;;;;;;3.47;2.70;;;16.80;99.90;;;;;;5037640;28;20432;-47
2023/10/10 09:54:48;;;;;;;6.20;2.93;;;16.70;99.90;;;;;;5037425;28;20963;-50
2023/10/10 09:57:17;;;;;;;4.00;2.47;;;16.60;99.90;;;;;;5043457;28;20533;-54
2023/10/10 09:59:53;;;;;;;7.20;3.47;;;16.70;99.90;;;;;;5059840;28;20417;-48
2023/10/10 10:02:40;;;;;;;3.27;2.70;;;16.70;99.90;;;;;;5049176;28;20471;-51
2023/10/10 10:05:13;;;;;;;2.90;2.20;;;16.70;99.90;;;;;;5036461;28;20478;-53
2023/10/10 10:07:57;;;;;;;5.43;2.53;;;16.70;99.90;;;;;;5045859;28;20428;-50
2023/10/10 10:10:49;;;;;;;2.83;2.50;;;16.80;99.90;;;;;;5045417;28;20416;-47
2023/10/10 10:13:40;;;;;;;4.37;2.50;;;16.90;99.90;;;;;;5042803;28;20507;-52
2023/10/10 10:16:19;;;;;;;4.47;2.97;;;16.90;99.90;;;;;;5028352;28;20484;-50
2023/10/10 10:18:52;;;;;;;4.97;2.90;;;16.90;99.90;;;;;;5042729;28;20409;-50
2023/10/10 10:21:30;;;;;;;4.23;2.47;;;16.90;99.90;;;;;;5059299;28;20551;-51
2023/10/10 10:24:15;;;;;;;3.37;2.73;;;16.80;99.90;;;;;;5055511;28;20421;-52
2023/10/10 10:26:43;;;;;;;3.00;2.23;;;16.70;99.90;;;;;;5034962;28;20895;-50
2023/10/10 10:29:16;;;;;;;2.77;2.57;;;16.60;99.90;;;;;;5035316;28;20433;-54
2023/10/10 10:31:51;;;;;;;3.83;2.93;;;16.60;99.90;;;;;;5036202;28;20474;-51
2023/10/10 10:34:31;;;;;;;2.57;2.37;;;16.50;99.90;;;;;;5037910;28;20970;-52
2023/10/10 10:37:07;;;;;;;4.10;3.13;;;16.50;99.90;;;;;;5035272;28;20747;-53
2023/10/10 10:39:35;;;;;;;2.87;2.63;;;16.50;99.90;;;;;;5035578;28;20533;-48
2023/10/10 10:42:11;;;;;;;2.90;2.60;;;16.50;99.90;;;;;;5040132;28;20432;-51
2023/10/10 10:44:54;;;;;;;3.77;2.57;;;16.40;99.90;;;;;;5035953;28;20515;-52
2023/10/10 10:47:59;;;;;;;2.60;2.33;;;16.40;99.90;;;;;;5036991;28;20468;-51
2023/10/10 10:50:45;;;;;;;4.20;2.33;;;16.30;99.90;;;;;;5058877;28;20416;-47
2023/10/10 10:53:34;;;;;;;4.47;2.70;;;16.40;99.90;;;;;;5056554;28;20490;-51
2023/10/10 10:59:11;;;;;;;3.60;2.57;;;16.60;99.90;;;;;;5034693;28;20419;-50
2023/10/10 11:01:43;;;;;;;2.73;2.23;;;16.60;99.90;;;;;;5034810;28;20447;-50
2023/10/10 11:04:23;;;;;;;3.17;2.80;;;16.70;99.90;;;;;;5048140;28;20420;-51
2023/10/10 11:06:51;;;;;;;10.63;5.13;;;16.70;99.90;;;;;;5056336;28;20476;-50
2023/10/10 11:09:30;;;;;;;3.63;2.67;;;16.80;99.90;;;;;;5055571;28;20474;-49
2023/10/10 11:12:03;;;;;;;2.70;2.40;;;16.80;99.90;;;;;;5048465;28;20482;-50
2023/10/10 11:14:31;;;;;;;2.93;2.43;;;16.80;99.90;;;;;;5035932;28;20428;-48
2023/10/10 11:16:59;;;;;;;8.63;2.90;;;16.80;99.90;;;;;;5039819;28;20502;-50
2023/10/10 11:19:39;;;;;;;5.50;2.73;;;16.80;99.90;;;;;;5044945;28;20468;-50
2023/10/10 11:22:12;;;;;;;4.90;3.00;;;16.80;99.90;;;;;;5049134;28;20855;-53
2023/10/10 11:24:46;;;;;;;3.77;2.47;;;16.90;99.90;;;;;;5038703;28;20491;-50
2023/10/10 11:27:21;;;;;;;4.10;2.70;;;16.80;99.90;;;;;;5040391;28;20845;-51
2023/10/10 11:29:50;;;;;;;3.90;2.70;;;16.80;99.90;;;;;;5034584;28;20424;-50
2023/10/10 11:32:23;;;;;;;6.33;2.87;;;16.80;99.90;;;;;;5037062;28;20459;-51
2023/10/10 11:34:51;;;;;;;6.53;2.60;;;16.80;99.90;;;;;;5038608;28;20468;-51
2023/10/10 11:37:22;;;;;;;5.43;2.30;;;16.80;99.90;;;;;;5038628;28;20436;-50
2023/10/10 11:39:57;;;;;;;3.47;2.60;;;16.90;99.90;;;;;;5038376;28;20555;-50
2023/10/10 11:42:27;;;;;;;4.77;2.87;;;16.90;99.90;;;;;;5038321;28;20523;-50
2023/10/10 11:44:54;;;;;;;5.60;3.13;;;16.80;99.90;;;;;;5040866;28;20471;-53
2023/10/10 11:47:25;;;;;;;4.40;3.20;;;16.80;99.90;;;;;;5041001;28;20478;-51
2023/10/10 11:50:00;;;;;;;4.93;3.07;;;16.80;99.90;;;;;;5042575;28;20769;-55
2023/10/10 11:52:28;;;;;;;5.10;3.40;;;16.80;99.90;;;;;;5043042;28;20461;-50
2023/10/10 11:54:58;;;;;;;3.40;2.83;;;16.90;99.90;;;;;;5042913;28;20468;-50
2023/10/10 11:57:29;;;;;;;4.77;2.93;;;17.00;99.90;;;;;;5043253;28;20464;-51
2023/10/10 12:00:07;;;;;;;12.13;5.17;;;17.10;99.90;;;;;;5043077;28;20503;-54
2023/10/10 12:02:40;;;;;;;4.70;3.43;;;17.30;99.90;;;;;;5043273;28;20509;-47
2023/10/10 12:05:35;;;;;;;3.57;3.00;;;17.40;99.90;;;;;;5037948;28;20424;-50
2023/10/10 12:08:05;;;;;;;3.93;2.93;;;17.50;99.90;;;;;;5038084;28;20464;-51
2023/10/10 12:10:47;;;;;;;2.13;1.90;;;17.60;99.90;;;;;;5037836;28;20567;-50
2023/10/10 12:13:20;;;;;;;2.50;2.30;;;17.60;99.90;;;;;;5037546;28;20472;-50
2023/10/10 12:15:47;;;;;;;7.30;2.90;;;17.60;99.90;;;;;;5038097;28;20463;-52
2023/10/10 12:18:14;;;;;;;3.07;2.17;;;17.60;99.90;;;;;;5038085;28;20448;-50
2023/10/10 12:20:44;;;;;;;2.30;2.03;;;17.60;99.90;;;;;;5037822;28;20510;-54
2023/10/10 12:23:11;;;;;;;2.83;2.43;;;17.60;99.90;;;;;;5037851;28;20440;-50
2023/10/10 12:25:46;;;;;;;11.20;2.27;;;17.50;99.90;;;;;;5059118;28;20471;-53
2023/10/10 12:28:17;;;;;;;3.33;2.87;;;17.50;99.90;;;;;;5059107;28;20503;-56
2023/10/10 12:30:45;;;;;;;3.67;2.40;;;17.50;99.90;;;;;;5038433;28;20454;-50
2023/10/10 12:33:12;;;;;;;3.27;2.17;;;17.30;99.90;;;;;;5037300;28;20483;-51
2023/10/10 12:35:42;;;;;;;2.70;1.90;;;17.30;99.90;;;;;;5037721;28;20468;-51
2023/10/10 12:38:10;;;;;;;2.53;2.20;;;17.20;99.90;;;;;;5038316;28;20548;-51
2023/10/10 12:40:37;;;;;;;2.80;2.27;;;17.20;99.90;;;;;;5037378;28;20541;-51
2023/10/10 12:43:07;;;;;;;4.40;2.57;;;17.30;99.90;;;;;;5036083;28;20482;-52
2023/10/10 12:45:34;;;;;;;4.73;4.20;;;17.30;99.90;;;;;;5037588;28;20425;-56
2023/10/10 12:48:03;;;;;;;11.47;7.83;;;17.40;99.90;;;;;;5037500;28;20470;-50
2023/10/10 12:50:32;;;;;;;7.03;4.70;;;17.50;99.90;;;;;;5036958;28;20459;-48
2023/10/10 12:53:07;;;;;;;4.70;3.00;;;17.60;99.90;;;;;;5037108;28;20448;-51
2023/10/10 12:55:36;;;;;;;5.70;2.87;;;17.60;99.90;;;;;;5060933;28;20440;-47
2023/10/10 12:58:09;;;;;;;2.80;2.40;;;17.60;99.90;;;;;;5061081;28;20475;-48
2023/10/10 13:00:38;;;;;;;4.47;2.37;;;17.60;99.90;;;;;;5101439;22;20497;-71
2023/10/10 13:03:07;;;;;;;2.90;2.30;;;17.60;99.90;;;;;;5059375;28;20465;-70
2023/10/10 13:05:34;;;;;;;3.63;1.93;;;17.70;99.90;;;;;;5060680;28;20435;-72
2023/10/10 13:08:06;;;;;;;2.40;2.20;;;17.70;99.90;;;;;;5077770;28;20422;-72
2023/10/10 13:10:37;;;;;;;3.07;2.00;;;17.70;99.90;;;;;;5077294;28;20435;-73
2023/10/10 13:13:07;;;;;;;4.70;2.20;;;17.70;99.90;;;;;;5076269;28;20562;-72
2023/10/10 13:18:22;;;;;;;2.87;2.03;;;17.60;99.90;;;;;;5078925;28;20450;-74
2023/10/10 13:20:50;;;;;;;2.07;1.87;;;17.60;99.90;;;;;;5080435;28;20626;-73
2023/10/10 13:23:20;;;;;;;2.73;2.43;;;17.60;99.90;;;;;;5057965;28;20474;-70
2023/10/10 13:25:54;;;;;;;2.80;2.27;;;17.60;99.90;;;;;;5062424;28;20427;-70
2023/10/10 13:28:21;;;;;;;3.27;2.80;;;17.60;99.90;;;;;;5079709;28;20470;-68
2023/10/10 13:30:49;;;;;;;2.60;2.40;;;17.70;99.90;;;;;;5085972;28;20423;-68
2023/10/10 13:33:20;;;;;;;3.13;2.20;;;17.70;99.90;;;;;;5079505;28;20821;-72
2023/10/10 13:35:53;;;;;;;4.97;2.73;;;17.80;99.90;;;;;;5065727;28;20472;-71
2023/10/10 13:38:21;;;;;;;6.80;1.90;;;17.90;99.90;;;;;;5067849;28;20437;-71
2023/10/10 13:40:48;;;;;;;3.70;2.50;;;17.90;99.90;;;;;;5056994;28;20443;-72
2023/10/10 13:43:17;;;;;;;2.40;2.20;;;17.90;99.90;;;;;;5069822;28;20879;-73
2023/10/10 13:45:47;;;;;;;2.07;1.87;;;17.90;99.90;;;;;;5063938;28;20431;-75
2023/10/10 13:48:18;;;;;;;2.73;2.53;;;18.00;99.90;;;;;;5066339;28;20441;-73
2023/10/10 13:50:55;;;;;;;3.17;2.23;;;18.00;99.90;;;;;;5075045;28;20518;-71
2023/10/10 13:53:23;;;;;;;3.40;2.17;;;18.00;99.90;;;;;;5075154;28;20469;-74
2023/10/10 13:55:50;;;;;;;3.00;2.13;;;18.00;99.90;;;;;;5072746;28;20470;-74
2023/10/10 13:58:17;;;;;;;4.37;3.30;;;18.10;99.90;;;;;;5068311;28;20455;-73
2023/10/10 14:00:52;;;;;;;2.77;2.27;;;18.10;99.90;;;;;;5073920;28;20446;-74
2023/10/10 14:03:28;;;;;;;2.40;2.20;;;18.10;99.90;;;;;;5073857;28;20557;-74
2023/10/10 14:06:03;;;;;;;5.47;2.53;;;18.10;99.90;;;;;;5072379;28;20934;-72
2023/10/10 14:08:31;;;;;;;4.20;3.30;;;18.10;99.90;;;;;;5051494;28;20454;-71
2023/10/10 14:11:00;;;;;;;3.53;2.60;;;18.00;99.90;;;;;;5073587;28;20441;-72
2023/10/10 14:13:28;;;;;;;2.90;2.63;;;18.00;99.90;;;;;;5068388;28;20526;-75
2023/10/10 14:15:56;;;;;;;2.90;2.60;;;18.00;99.90;;;;;;5052942;28;20463;-73
2023/10/10 14:18:26;;;;;;;5.40;3.57;;;17.90;99.90;;;;;;5052891;28;20457;-75
2023/10/10 14:21:02;;;;;;;4.73;2.90;;;17.90;99.90;;;;;;5058804;28;20520;-73
2023/10/10 14:23:35;;;;;;;3.27;2.60;;;17.90;99.90;;;;;;5053334;28;20563;-72
2023/10/10 14:26:13;;;;;;;2.90;2.53;;;17.90;99.90;;;;;;5053223;28;20459;-73
2023/10/10 14:28:50;;;;;;;3.53;2.97;;;17.80;99.90;;;;;;5055640;28;20471;-72
2023/10/10 14:31:17;;;;;;;2.40;2.10;;;17.80;99.90;;;;;;5053614;28;20438;-73
2023/10/10 14:33:46;;;;;;;4.10;2.90;;;17.80;99.90;;;;;;5065504;28;20459;-73
2023/10/10 14:36:13;;;;;;;5.03;2.30;;;17.80;99.90;;;;;;5054886;28;20529;-73
2023/10/10 14:38:44;;;;;;;4.60;2.60;;;17.80;99.90;;;;;;5064984;28;20967;-73
2023/10/10 14:41:13;;;;;;;3.77;2.40;;;17.80;99.90;;;;;;5072169;28;20513;-73
2023/10/10 14:43:47;;;;;;;25.17;6.43;;;17.80;99.90;;;;;;5061254;28;20577;-73
2023/10/10 14:46:21;;;;;;;5.40;2.93;;;17.70;99.90;;;;;;5068806;28;20512;-72
2023/10/10 14:48:50;;;;;;;5.30;2.20;;;17.70;99.90;;;;;;5072431;28;20848;-72
2023/10/10 14:51:19;;;;;;;5.80;2.90;;;17.70;99.90;;;;;;5071804;28;20965;-71
2023/10/10 14:53:51;;;;;;;4.13;2.10;;;17.70;99.90;;;;;;5071381;28;20565;-73
2023/10/10 14:56:22;;;;;;;4.60;2.57;;;17.60;99.90;;;;;;5072508;28;20463;-72
2023/10/10 14:58:50;;;;;;;4.27;2.70;;;17.60;99.90;;;;;;5072537;28;20480;-73
2023/10/10 15:01:20;;;;;;;3.00;2.37;;;17.60;99.90;;;;;;5072131;28;20845;-74
2023/10/10 15:03:50;;;;;;;8.33;3.63;;;17.60;99.90;;;;;;5072065;28;20466;-73
2023/10/10 15:06:21;;;;;;;5.17;2.63;;;17.60;99.90;;;;;;5072318;28;20418;-71
2023/10/10 15:08:48;;;;;;;12.50;4.10;;;17.50;99.90;;;;;;5070834;28;20448;-70
2023/10/10 15:11:17;;;;;;;25.37;12.50;;;17.50;99.90;;;;;;5089352;28;20410;-71
2023/10/10 15:13:44;;;;;;;4.57;3.10;;;17.50;99.90;;;;;;5078416;28;20466;-73